createdAt,value
2019-03-23T00:02:14.475Z,81.74
2019-03-23T00:04:42.893Z,79.64
2019-03-23T00:07:11.278Z,78.37
2019-03-23T00:09:39.630Z,77.13
2019-03-23T00:12:08.085Z,77.46
2019-03-23T00:14:36.431Z,78.34
2019-03-23T00:17:04.951Z,79.48
2019-03-23T00:19:33.311Z,79.63
2019-03-23T00:22:01.698Z,80.19
2019-03-23T00:24:30.048Z,80.88
2019-03-23T00:26:58.429Z,80.92
2019-03-23T00:29:26.783Z,81.08
2019-03-23T00:31:55.158Z,81.44
2019-03-23T00:34:23.506Z,81.09
2019-03-23T00:36:51.916Z,80.60
2019-03-23T00:39:20.271Z,79.72
2019-03-23T00:41:49.145Z,79.50
2019-03-23T00:44:17.507Z,80.20
2019-03-23T00:46:45.895Z,80.96
2019-03-23T00:49:14.242Z,81.85
2019-03-23T00:51:42.623Z,81.23
2019-03-23T00:54:10.976Z,82.75
2019-03-23T00:56:39.366Z,83.62
2019-03-23T00:59:07.723Z,83.83
2019-03-23T01:01:36.108Z,83.50
2019-03-23T01:04:04.582Z,82.86
2019-03-23T01:06:32.910Z,81.81
2019-03-23T01:09:01.331Z,82.29
2019-03-23T01:11:29.712Z,82.18
2019-03-23T01:13:58.063Z,82.29
2019-03-23T01:16:26.726Z,83.66
2019-03-23T01:18:55.070Z,82.62
2019-03-23T01:21:23.458Z,84.51
2019-03-23T01:23:51.806Z,84.05
2019-03-23T01:26:20.189Z,82.99
2019-03-23T01:28:48.535Z,82.23
2019-03-23T01:31:16.923Z,81.11
2019-03-23T01:33:45.271Z,80.96
2019-03-23T01:36:13.653Z,80.53
2019-03-23T01:38:42.005Z,81.89
2019-03-23T01:41:10.384Z,82.73
2019-03-23T01:43:38.737Z,81.82
2019-03-23T01:46:07.123Z,82.35
2019-03-23T01:48:35.475Z,82.64
2019-03-23T01:51:03.856Z,83.17
2019-03-23T01:53:32.205Z,82.61
2019-03-23T01:56:00.581Z,82.36
2019-03-23T01:58:28.926Z,82.49
2019-03-23T02:00:57.314Z,82.28
2019-03-23T02:03:25.734Z,84.88
2019-03-23T02:05:54.113Z,87.46
2019-03-23T02:08:22.664Z,85.67
2019-03-23T02:10:51.045Z,83.48
2019-03-23T02:13:19.657Z,83.45
2019-03-23T02:15:48.106Z,83.22
2019-03-23T02:18:16.452Z,82.72
2019-03-23T02:20:44.910Z,82.14
2019-03-23T02:23:13.267Z,81.12
2019-03-23T02:25:41.664Z,84.32
2019-03-23T02:28:10.455Z,85.48
2019-03-23T02:30:38.890Z,83.56
2019-03-23T02:33:07.589Z,80.86
2019-03-23T02:35:36.015Z,80.86
2019-03-23T02:38:04.463Z,81.11
2019-03-23T02:40:32.819Z,81.66
2019-03-23T02:43:01.210Z,82.47
2019-03-23T02:45:30.480Z,82.92
2019-03-23T02:47:59.784Z,83.57
2019-03-23T02:50:28.203Z,83.63
2019-03-23T02:52:56.586Z,82.89
2019-03-23T02:55:24.939Z,82.57
2019-03-23T02:57:53.318Z,81.82
2019-03-23T03:00:21.680Z,81.23
2019-03-23T03:02:50.059Z,81.14
2019-03-23T03:05:18.503Z,81.62
2019-03-23T03:07:46.926Z,82.13
2019-03-23T03:10:36.463Z,85.33
2019-03-23T03:13:04.841Z,83.37
2019-03-23T03:15:33.191Z,80.88
2019-03-23T03:18:01.570Z,81.27
2019-03-23T03:20:29.915Z,82.56
2019-03-23T03:22:58.363Z,82.12
2019-03-23T03:25:26.714Z,81.89
2019-03-23T03:27:55.102Z,82.80
2019-03-23T03:30:23.499Z,83.31
2019-03-23T03:32:51.924Z,83.13
2019-03-23T03:35:20.270Z,84.64
2019-03-23T03:37:56.441Z,83.03
2019-03-23T03:40:18.799Z,82.72
2019-03-23T03:42:47.180Z,81.91
2019-03-23T03:45:24.077Z,82.66
2019-03-23T03:47:52.515Z,82.45
2019-03-23T03:50:20.866Z,81.06
2019-03-23T03:52:49.332Z,82.95
2019-03-23T03:55:17.665Z,83.67
2019-03-23T03:57:46.131Z,82.65
2019-03-23T04:00:14.891Z,82.36
2019-03-23T04:02:43.276Z,82.31
2019-03-23T04:05:11.709Z,83.70
2019-03-23T04:07:40.069Z,81.92
2019-03-23T04:10:09.879Z,81.74
2019-03-23T04:12:38.242Z,82.98
2019-03-23T04:15:08.836Z,82.56
2019-03-23T04:17:37.485Z,82.95
2019-03-23T04:20:08.131Z,84.42
2019-03-23T04:22:37.273Z,84.39
2019-03-23T04:25:07.543Z,82.66
2019-03-23T04:27:35.994Z,82.38
2019-03-23T04:30:06.297Z,81.48
2019-03-23T04:32:34.827Z,80.15
2019-03-23T04:35:03.502Z,81.05
2019-03-23T04:37:31.882Z,81.52
2019-03-23T04:40:00.280Z,82.09
2019-03-23T04:42:28.611Z,83.64
2019-03-23T04:44:56.966Z,85.13
2019-03-23T04:47:25.457Z,83.34
2019-03-23T04:49:53.767Z,82.74
2019-03-23T04:52:22.150Z,84.06
2019-03-23T04:54:50.507Z,84.46
2019-03-23T04:57:18.892Z,84.11
2019-03-23T04:59:47.240Z,82.98
2019-03-23T05:02:15.621Z,84.38
2019-03-23T05:04:43.988Z,83.31
2019-03-23T05:07:12.353Z,82.26
2019-03-23T05:09:40.708Z,81.64
2019-03-23T05:12:09.090Z,82.21
2019-03-23T05:14:37.437Z,81.91
2019-03-23T05:17:05.892Z,82.13
2019-03-23T05:19:34.235Z,83.98
2019-03-23T05:22:02.616Z,84.62
2019-03-23T05:24:30.965Z,85.40
2019-03-23T05:26:59.417Z,85.14
2019-03-23T05:29:27.835Z,84.98
2019-03-23T05:31:56.223Z,84.28
2019-03-23T05:34:24.571Z,84.94
2019-03-23T05:36:52.959Z,84.46
2019-03-23T05:39:21.301Z,85.09
2019-03-23T05:41:49.685Z,84.65
2019-03-23T05:44:18.033Z,84.48
2019-03-23T05:46:46.389Z,84.11
2019-03-23T05:49:14.769Z,84.25
2019-03-23T05:51:43.121Z,84.72
2019-03-23T05:54:11.759Z,85.24
2019-03-23T05:56:40.319Z,83.82
2019-03-23T05:59:08.704Z,84.13
2019-03-23T06:01:37.136Z,82.87
2019-03-23T06:04:07.761Z,83.59
2019-03-23T06:06:36.446Z,83.85
2019-03-23T06:09:06.735Z,83.92
2019-03-23T06:11:35.154Z,84.53
2019-03-23T06:14:03.612Z,84.00
2019-03-23T06:16:31.960Z,84.94
2019-03-23T06:19:00.339Z,83.78
2019-03-23T06:21:28.689Z,83.70
2019-03-23T06:23:57.065Z,83.64
2019-03-23T06:26:25.653Z,84.10
2019-03-23T06:28:54.536Z,83.84
2019-03-23T06:31:23.214Z,83.66
2019-03-23T06:33:51.598Z,84.85
2019-03-23T06:36:19.948Z,85.14
2019-03-23T06:38:48.327Z,84.45
2019-03-23T06:41:16.678Z,85.28
2019-03-23T06:43:45.065Z,85.46
2019-03-23T06:46:13.406Z,85.78
2019-03-23T06:48:41.791Z,85.43
2019-03-23T06:51:10.145Z,85.30
2019-03-23T06:53:38.525Z,84.74
2019-03-23T06:56:06.879Z,84.97
2019-03-23T06:58:35.261Z,85.53
2019-03-23T07:01:03.694Z,84.98
2019-03-23T07:03:33.981Z,84.22
2019-03-23T07:06:05.583Z,84.05
2019-03-23T07:08:35.697Z,85.09
2019-03-23T07:11:04.334Z,85.10
2019-03-23T07:13:32.795Z,85.14
2019-03-23T07:16:01.148Z,84.71
2019-03-23T07:18:29.529Z,84.64
2019-03-23T07:20:57.948Z,85.00
2019-03-23T07:23:26.336Z,85.16
2019-03-23T07:25:54.683Z,85.86
2019-03-23T07:28:23.068Z,84.79
2019-03-23T07:30:51.510Z,84.06
2019-03-23T07:33:19.876Z,83.56
2019-03-23T07:35:48.228Z,83.28
2019-03-23T07:38:16.604Z,84.07
2019-03-23T07:40:44.955Z,84.96
2019-03-23T07:43:13.426Z,85.21
2019-03-23T07:45:41.769Z,83.98
2019-03-23T07:48:10.154Z,84.66
2019-03-23T07:50:39.217Z,85.18
2019-03-23T07:53:08.179Z,85.54
2019-03-23T07:55:38.530Z,83.88
2019-03-23T07:58:09.710Z,84.72
2019-03-23T08:00:40.893Z,85.38
2019-03-23T08:03:09.506Z,84.43
2019-03-23T08:05:39.235Z,84.48
2019-03-23T08:08:08.867Z,84.43
2019-03-23T08:10:37.915Z,83.59
2019-03-23T08:13:07.001Z,82.64
2019-03-23T08:15:35.981Z,83.68
2019-03-23T08:18:04.477Z,83.42
2019-03-23T08:20:32.879Z,83.54
2019-03-23T08:23:01.224Z,84.16
2019-03-23T08:25:29.616Z,82.52
2019-03-23T08:27:57.969Z,82.42
2019-03-23T08:30:27.432Z,82.16
2019-03-23T08:32:55.784Z,82.09
2019-03-23T08:35:24.241Z,82.07
2019-03-23T08:37:52.869Z,81.31
2019-03-23T08:40:21.318Z,81.49
2019-03-23T08:42:49.667Z,81.27
2019-03-23T08:45:18.051Z,83.77
2019-03-23T08:47:46.400Z,83.36
2019-03-23T08:50:15.019Z,85.08
2019-03-23T08:52:43.375Z,84.75
2019-03-23T08:55:11.827Z,83.86
2019-03-23T08:57:41.417Z,83.40
2019-03-23T09:00:10.113Z,82.91
2019-03-23T09:02:38.458Z,82.67
2019-03-23T09:05:07.007Z,82.42
2019-03-23T09:07:35.360Z,82.99
2019-03-23T09:10:06.748Z,82.40
2019-03-23T09:12:35.095Z,82.10
2019-03-23T09:15:04.785Z,81.71
2019-03-23T09:17:33.174Z,81.86
2019-03-23T09:20:01.523Z,81.69
2019-03-23T09:22:29.908Z,81.55
2019-03-23T09:24:58.258Z,80.90
2019-03-23T09:27:26.719Z,80.67
2019-03-23T09:29:55.064Z,80.04
2019-03-23T09:32:23.744Z,79.45
2019-03-23T09:34:52.234Z,81.81
2019-03-23T09:37:20.687Z,84.02
2019-03-23T09:39:49.107Z,83.20
2019-03-23T09:42:17.650Z,81.45
2019-03-23T09:44:46.002Z,80.30
2019-03-23T09:47:14.379Z,80.30
2019-03-23T09:49:42.729Z,76.35
2019-03-23T09:52:11.114Z,76.74
2019-03-23T09:54:39.601Z,78.43
2019-03-23T09:57:07.984Z,79.86
2019-03-23T09:59:36.553Z,82.11
2019-03-23T10:02:05.008Z,81.79
2019-03-23T10:04:33.355Z,86.11
2019-03-23T10:07:01.735Z,85.87
2019-03-23T10:09:30.157Z,85.15
2019-03-23T10:11:59.334Z,82.89
2019-03-23T10:14:27.656Z,80.92
2019-03-23T10:16:56.044Z,80.52
2019-03-23T10:19:24.561Z,80.54
2019-03-23T10:21:53.449Z,82.01
2019-03-23T10:24:21.875Z,82.76
2019-03-23T10:26:52.153Z,83.51
2019-03-23T10:29:20.336Z,84.79
2019-03-23T10:31:48.707Z,85.57
2019-03-23T10:34:17.338Z,80.78
2019-03-23T10:36:45.790Z,81.58
2019-03-23T10:39:14.301Z,80.88
2019-03-23T10:41:42.663Z,81.65
2019-03-23T10:44:11.116Z,78.76
2019-03-23T10:46:41.007Z,78.55
2019-03-23T10:49:09.465Z,77.45
2019-03-23T10:51:37.889Z,79.30
2019-03-23T10:54:06.350Z,79.80
2019-03-23T10:56:34.787Z,79.34
2019-03-23T10:59:03.473Z,79.65
2019-03-23T11:01:31.993Z,71.34
2019-03-23T11:04:00.594Z,73.59
2019-03-23T11:06:28.939Z,76.18
2019-03-23T11:08:57.965Z,72.88
2019-03-23T11:11:26.315Z,71.14
2019-03-23T11:13:54.708Z,73.32
2019-03-23T11:16:23.131Z,76.20
2019-03-23T11:18:51.518Z,77.59
2019-03-23T11:21:19.946Z,75.44
2019-03-23T11:23:48.326Z,79.94
2019-03-23T11:26:16.754Z,63.22
2019-03-23T11:28:45.147Z,62.75
2019-03-23T11:31:13.649Z,65.65
2019-03-23T11:33:42.103Z,66.00
2019-03-23T11:36:10.602Z,67.18
2019-03-23T11:38:38.995Z,61.70
2019-03-23T11:41:07.412Z,64.23
2019-03-23T11:43:35.797Z,62.17
2019-03-23T11:46:04.225Z,58.80
2019-03-23T11:48:32.613Z,64.42
2019-03-23T11:51:00.968Z,58.22
2019-03-23T11:53:29.373Z,58.39
2019-03-23T11:55:57.717Z,59.20
2019-03-23T11:58:26.067Z,59.78
2019-03-23T12:00:54.539Z,61.03
2019-03-23T12:03:23.086Z,60.91
2019-03-23T12:05:51.541Z,62.36
2019-03-23T12:08:19.898Z,65.58
2019-03-23T12:10:48.663Z,65.27
2019-03-23T12:13:17.319Z,61.48
2019-03-23T12:15:45.783Z,65.13
2019-03-23T12:18:15.621Z,66.03
2019-03-23T12:20:44.193Z,64.84
2019-03-23T12:23:12.608Z,62.30
2019-03-23T12:25:41.135Z,61.15
2019-03-23T12:28:09.562Z,63.92
2019-03-23T12:30:37.946Z,63.40
2019-03-23T12:33:06.508Z,59.19
2019-03-23T12:35:34.905Z,61.28
2019-03-23T12:38:03.327Z,63.45
2019-03-23T12:40:31.716Z,60.85
2019-03-23T12:43:00.205Z,60.89
2019-03-23T12:45:28.663Z,63.05
2019-03-23T12:47:57.088Z,62.56
2019-03-23T12:50:25.552Z,59.29
2019-03-23T12:52:53.909Z,59.69
2019-03-23T12:55:22.370Z,60.36
2019-03-23T12:57:50.723Z,61.64
2019-03-23T13:00:19.250Z,59.77
2019-03-23T13:02:47.753Z,59.65
2019-03-23T13:05:16.280Z,59.15
2019-03-23T13:07:44.683Z,59.60
2019-03-23T13:10:14.275Z,62.94
2019-03-23T13:12:42.734Z,61.49
2019-03-23T13:15:12.925Z,62.19
2019-03-23T13:17:41.320Z,58.27
2019-03-23T13:20:10.424Z,55.79
2019-03-23T13:22:38.765Z,58.94
2019-03-23T13:25:09.033Z,59.72
2019-03-23T13:27:37.604Z,61.07
2019-03-23T13:30:09.091Z,55.06
2019-03-23T13:32:37.482Z,57.01
2019-03-23T13:35:05.910Z,57.01
2019-03-23T13:37:34.298Z,57.81
2019-03-23T13:40:02.651Z,55.93
2019-03-23T13:42:31.033Z,53.74
2019-03-23T13:44:59.390Z,56.95
2019-03-23T13:47:27.848Z,57.12
2019-03-23T13:49:56.200Z,52.53
2019-03-23T13:52:24.670Z,55.98
2019-03-23T13:54:53.021Z,53.86
2019-03-23T13:57:21.409Z,53.41
2019-03-23T13:59:49.830Z,57.17
2019-03-23T14:02:18.217Z,59.06
2019-03-23T14:04:46.577Z,58.21
2019-03-23T14:07:15.140Z,51.43
2019-03-23T14:09:43.568Z,53.71
2019-03-23T14:12:11.931Z,52.20
2019-03-23T14:14:40.320Z,51.83
2019-03-23T14:17:08.667Z,49.91
2019-03-23T14:19:37.056Z,51.63
2019-03-23T14:22:05.409Z,53.40
2019-03-23T14:24:33.795Z,54.46
2019-03-23T14:27:02.150Z,54.75
2019-03-23T14:29:30.536Z,55.22
2019-03-23T14:31:58.902Z,52.83
2019-03-23T14:34:27.287Z,50.55
2019-03-23T14:36:55.643Z,48.92
2019-03-23T14:39:24.095Z,50.96
2019-03-23T14:41:52.452Z,52.41
2019-03-23T14:44:20.845Z,50.66
2019-03-23T14:46:49.197Z,48.69
2019-03-23T14:49:17.656Z,49.75
2019-03-23T14:51:46.007Z,48.68
2019-03-23T14:54:14.398Z,48.44
2019-03-23T14:56:42.759Z,48.47
2019-03-23T14:59:11.147Z,48.82
2019-03-23T15:01:39.572Z,48.27
2019-03-23T15:04:07.965Z,53.01
2019-03-23T15:06:36.319Z,49.09
2019-03-23T15:09:06.378Z,49.49
2019-03-23T15:11:34.736Z,48.31
2019-03-23T15:14:03.129Z,48.87
2019-03-23T15:16:31.481Z,49.41
2019-03-23T15:18:59.871Z,47.56
2019-03-23T15:21:28.227Z,47.92
2019-03-23T15:23:56.580Z,49.82
2019-03-23T15:26:24.969Z,50.92
2019-03-23T15:28:53.329Z,50.43
2019-03-23T15:31:21.704Z,49.41
2019-03-23T15:33:50.066Z,49.80
2019-03-23T15:36:18.515Z,48.31
2019-03-23T15:38:46.875Z,48.30
2019-03-23T15:41:15.271Z,47.83
2019-03-23T15:43:43.622Z,49.06
2019-03-23T15:46:12.010Z,49.28
2019-03-23T15:48:40.369Z,47.60
2019-03-23T15:51:08.764Z,49.25
2019-03-23T15:53:37.117Z,49.66
2019-03-23T15:56:05.647Z,48.14
2019-03-23T15:58:34.007Z,48.17
2019-03-23T16:01:02.460Z,48.29
2019-03-23T16:03:30.816Z,47.63
2019-03-23T16:05:59.201Z,49.90
2019-03-23T16:08:27.559Z,48.01
2019-03-23T16:10:55.950Z,47.04
2019-03-23T16:13:24.301Z,47.44
2019-03-23T16:15:52.758Z,48.21
2019-03-23T16:18:21.492Z,48.48
2019-03-23T16:20:49.882Z,48.97
2019-03-23T16:23:18.243Z,48.38
2019-03-23T16:25:46.675Z,49.46
2019-03-23T16:28:15.469Z,50.21
2019-03-23T16:30:43.824Z,48.54
2019-03-23T16:33:12.331Z,49.76
2019-03-23T16:35:40.683Z,49.69
2019-03-23T16:38:09.214Z,51.97
2019-03-23T16:40:37.926Z,51.65
2019-03-23T16:43:06.451Z,49.86
2019-03-23T16:45:34.830Z,51.06
2019-03-23T16:48:03.222Z,50.23
2019-03-23T16:50:31.599Z,49.41
2019-03-23T16:53:00.415Z,50.07
2019-03-23T16:55:28.770Z,51.92
2019-03-23T16:57:57.326Z,53.34
2019-03-23T17:00:36.123Z,52.29
2019-03-23T17:03:05.141Z,52.04
2019-03-23T17:05:33.569Z,51.09
2019-03-23T17:08:01.962Z,51.32
2019-03-23T17:10:30.320Z,53.12
2019-03-23T17:12:58.708Z,52.87
2019-03-23T17:15:27.064Z,54.01
2019-03-23T17:17:56.313Z,54.28
2019-03-23T17:20:26.424Z,55.46
2019-03-23T17:22:54.811Z,59.55
2019-03-23T17:25:23.163Z,62.06
2019-03-23T17:27:51.550Z,63.67
2019-03-23T17:30:23.097Z,64.41
2019-03-23T17:32:51.489Z,65.71
2019-03-23T17:35:20.988Z,67.11
2019-03-23T17:37:49.902Z,68.05
2019-03-23T17:40:18.587Z,69.39
2019-03-23T17:42:46.970Z,70.24
2019-03-23T17:45:15.566Z,70.46
2019-03-23T17:47:44.439Z,70.65
2019-03-23T17:50:13.108Z,70.75
2019-03-23T17:52:42.180Z,71.87
2019-03-23T17:55:10.995Z,72.61
2019-03-23T17:57:39.416Z,73.29
2019-03-23T18:00:09.723Z,74.30
2019-03-23T18:02:38.239Z,74.34
2019-03-23T18:05:08.513Z,74.81
2019-03-23T18:07:36.936Z,74.38
2019-03-23T18:10:09.149Z,74.54
2019-03-23T18:12:37.572Z,74.20
2019-03-23T18:15:09.671Z,75.17
2019-03-23T18:17:38.090Z,75.24
2019-03-23T18:20:07.416Z,75.36
2019-03-23T18:22:35.836Z,75.07
2019-03-23T18:25:05.326Z,75.14
2019-03-23T18:27:33.686Z,74.99
2019-03-23T18:30:02.347Z,76.00
2019-03-23T18:32:31.249Z,76.07
2019-03-23T18:34:59.808Z,75.33
2019-03-23T18:37:28.162Z,76.22
2019-03-23T18:39:56.548Z,76.29
2019-03-23T18:42:24.976Z,77.92
2019-03-23T18:44:53.443Z,77.37
2019-03-23T18:47:21.805Z,78.05
2019-03-23T18:49:50.191Z,77.90
2019-03-23T18:52:18.554Z,77.86
2019-03-23T18:54:46.954Z,78.21
2019-03-23T18:57:15.519Z,77.63
2019-03-23T18:59:47.563Z,77.31
2019-03-23T19:02:20.375Z,75.86
2019-03-23T19:04:50.649Z,75.64
2019-03-23T19:07:21.018Z,75.20
2019-03-23T19:09:50.610Z,75.46
2019-03-23T19:12:20.245Z,76.04
2019-03-23T19:14:48.663Z,74.93
2019-03-23T19:17:17.047Z,74.76
2019-03-23T19:19:45.400Z,75.41
2019-03-23T19:22:13.791Z,75.91
2019-03-23T19:24:42.147Z,75.55
2019-03-23T19:27:10.535Z,75.54
2019-03-23T19:29:38.896Z,75.83
2019-03-23T19:32:07.351Z,75.73
2019-03-23T19:34:35.717Z,75.78
2019-03-23T19:37:04.170Z,75.65
2019-03-23T19:39:32.531Z,76.42
2019-03-23T19:42:00.921Z,75.92
2019-03-23T19:44:29.291Z,76.06
2019-03-23T19:46:57.663Z,75.62
2019-03-23T19:49:26.010Z,74.97
2019-03-23T19:51:54.400Z,74.95
2019-03-23T19:54:22.820Z,75.22
2019-03-23T19:56:51.275Z,74.24
2019-03-23T19:59:19.628Z,74.88
2019-03-23T20:01:48.028Z,75.35
2019-03-23T20:04:16.381Z,76.50
2019-03-23T20:06:44.774Z,76.33
2019-03-23T20:09:13.125Z,76.69
2019-03-23T20:11:41.472Z,75.99
2019-03-23T20:14:09.859Z,75.21
2019-03-23T20:16:38.222Z,75.43
2019-03-23T20:19:06.671Z,76.29
2019-03-23T20:21:35.028Z,75.47
2019-03-23T20:24:03.480Z,76.23
2019-03-23T20:26:31.837Z,75.93
2019-03-23T20:29:00.220Z,76.75
2019-03-23T20:31:28.576Z,76.94
2019-03-23T20:33:56.959Z,76.14
2019-03-23T20:36:25.316Z,77.39
2019-03-23T20:38:57.551Z,77.15
2019-03-23T20:41:27.461Z,77.80
2019-03-23T20:43:56.093Z,78.50
2019-03-23T20:46:25.539Z,77.27
2019-03-23T20:48:53.997Z,77.95
2019-03-23T20:51:22.354Z,77.80
2019-03-23T20:53:50.950Z,78.13
2019-03-23T20:56:19.301Z,77.33
2019-03-23T20:58:47.688Z,78.04
2019-03-23T21:01:16.037Z,78.04
2019-03-23T21:03:46.062Z,78.36
2019-03-23T21:06:14.766Z,77.71
2019-03-23T21:08:44.923Z,78.07
2019-03-23T21:11:13.973Z,77.60
2019-03-23T21:13:42.381Z,77.90
2019-03-23T21:16:11.289Z,78.12
2019-03-23T21:18:39.815Z,78.27
2019-03-23T21:21:08.619Z,78.48
2019-03-23T21:23:37.973Z,79.91
2019-03-23T21:26:06.394Z,81.18
2019-03-23T21:28:34.812Z,82.16
2019-03-23T21:31:03.435Z,81.67
2019-03-23T21:33:38.473Z,81.24
2019-03-23T21:36:02.138Z,81.25
2019-03-23T21:38:30.737Z,81.78
2019-03-23T21:40:59.391Z,82.65
2019-03-23T21:43:27.976Z,83.68
2019-03-23T21:45:56.819Z,84.26
2019-03-23T21:48:25.350Z,84.59
2019-03-23T21:50:53.872Z,83.01
2019-03-23T21:53:22.262Z,82.87
2019-03-23T21:55:51.092Z,82.84
2019-03-23T21:58:19.789Z,82.15
2019-03-23T22:00:48.740Z,82.92
2019-03-23T22:03:17.479Z,83.74
2019-03-23T22:05:45.867Z,84.74
2019-03-23T22:08:15.524Z,85.28
2019-03-23T22:10:44.027Z,86.02
2019-03-23T22:13:12.620Z,84.02
2019-03-23T22:15:41.450Z,83.14
2019-03-23T22:18:10.177Z,84.94
2019-03-23T22:20:38.574Z,85.63
2019-03-23T22:23:07.170Z,85.49
2019-03-23T22:25:35.791Z,84.96
2019-03-23T22:28:06.431Z,85.44
2019-03-23T22:30:34.811Z,84.38
2019-03-23T22:33:03.165Z,86.03
2019-03-23T22:35:31.545Z,85.50
2019-03-23T22:37:59.966Z,86.53
2019-03-23T22:40:28.440Z,86.72
2019-03-23T22:42:56.853Z,85.79
2019-03-23T22:45:25.208Z,85.22
2019-03-23T22:47:53.594Z,85.50
2019-03-23T22:50:22.020Z,84.59
2019-03-23T22:52:50.411Z,84.53
2019-03-23T22:55:18.770Z,85.02
2019-03-23T22:57:47.160Z,85.54
2019-03-23T23:00:22.526Z,86.82
2019-03-23T23:02:50.919Z,86.04
2019-03-23T23:05:19.585Z,85.84
2019-03-23T23:07:48.118Z,86.99
2019-03-23T23:10:16.713Z,86.68
2019-03-23T23:12:48.504Z,85.95
2019-03-23T23:15:17.036Z,84.95
2019-03-23T23:17:45.642Z,85.70
2019-03-23T23:20:14.059Z,87.37
2019-03-23T23:22:42.685Z,87.28
2019-03-23T23:25:11.658Z,88.50
2019-03-23T23:27:42.879Z,89.08
2019-03-23T23:30:12.129Z,89.11
2019-03-23T23:32:41.248Z,89.90
2019-03-23T23:35:10.509Z,90.31
2019-03-23T23:37:39.607Z,90.68
2019-03-23T23:40:08.438Z,89.39
2019-03-23T23:42:37.253Z,89.76
2019-03-23T23:45:16.006Z,89.05
2019-03-23T23:47:47.591Z,88.36
2019-03-23T23:50:16.116Z,89.11
2019-03-23T23:52:44.746Z,88.19
2019-03-23T23:55:13.457Z,86.37
2019-03-23T23:57:42.261Z,87.70
